Fort Morgan, CO

3:57 PM MDT on April 19, 2015 (GMT -0600)
Akron-Washington County | | Change Station
CLOSE
Current Station
Airport
Location: Akron,
Elevation: 4662 ft
Nearby Weather Stations

Elev 4662 ft 40.17 °N, 103.21 °W | Updated 4 minutes ago

Partly Cloudy
Partly Cloudy
46 °F
Feels Like 38 °F
N
23
Wind Variable Wind from NNW
Gusts 34 mph

Today
High -- | Low -- °F
--% Chance of Precip.
Yesterday
High -- | Low -- °F
Precip. -- in
6:11 AM 7:37 PM
New Moon, 2% visible
Pressure 30.01 in
Visibility 10.0 miles
Clouds Overcast 6500 ft
Windchill 38 °F
Dew Point 21 °F
Humidity 37%
Rainfall 0.04 in
Snow Depth Not available.
UV 2 out of 12
Pollen 8.40 out of 12
Air Quality Not available.
Flu Activity Local Activity
METAR KAKO 192153Z AUTO 33020G30KT 10SM OVC065 08/M06 A3002 RMK AO2 PK WND 34035/2055 SLP163 T00781061

More Conditions Fewer Conditions

Pressure 30.01 in
Visibility 10.0 miles
Clouds Overcast 6500 ft
Windchill 38 °F
Dew Point 21 °F
Humidity 37%
Rainfall 0.04 in
Snow Depth Not available.
UV 2 out of 12
Pollen 8.40 out of 12
Air Quality Not available.
Flu Activity Local Activity
METAR KAKO 192153Z AUTO 33020G30KT 10SM OVC065 08/M06 A3002 RMK AO2 PK WND 34035/2055 SLP163 T00781061

More Conditions Fewer Conditions

10-Day Weather Forecast

Almanac

Astronomy

Apr. 19, 2015 Rise Set
Actual Time
Civil Twilight
Nautical Twilight
Astronomical Twilight
Moon
Length of Visible Light
Length of Day
Tomorrow will be .
, % of the Moon is Illuminated

Today's Extremes

State Highs State Lows

Community

WunderPhotos

Upload Photos

1,814,994 photos uploaded!

WunderBlogs® & News

Nearby

Air Quality

  Air Quality AQ Index Pollutant
Not available.

Snow Depth

Station Depth Elevation

Earthquake Activity

City Distance Mag. Time & Date
Minimum magnitude displayed is 2.5.

Coastal Water Temperatures

Place Temperature

Stations

Nearby Weather Stations

Station Location Temp. Windchill Dew Point Humidity Wind Precip. Elev Updated Type